TimeCDT,TemperatureF,Dew PointF,Humidity,Sea Level PressureIn,VisibilityMPH,Wind Direction,Wind SpeedMPH,Gust SpeedMPH,PrecipitationIn,Events,Conditions,WindDirDegrees,DateUTC
12:15 AM,26.6,23.0,86,30.36,10.0,SW,4.6,-,N/A,,Clear,230,2012-10-12 05:15:00
12:35 AM,26.6,23.0,86,30.36,10.0,SW,5.8,-,N/A,,Clear,220,2012-10-12 05:35:00
12:55 AM,24.8,23.0,93,30.35,10.0,SSW,4.6,-,N/A,,Clear,210,2012-10-12 05:55:00
1:15 AM,26.6,23.0,86,30.35,10.0,SSW,3.5,-,N/A,,Clear,200,2012-10-12 06:15:00
1:35 AM,26.6,23.0,86,30.35,10.0,SSW,3.5,-,N/A,,Clear,200,2012-10-12 06:35:00
1:55 AM,26.6,23.0,86,30.35,10.0,SSW,4.6,-,N/A,,Clear,200,2012-10-12 06:55:00
2:15 AM,26.6,23.0,86,30.35,10.0,SSW,3.5,-,N/A,,Clear,200,2012-10-12 07:15:00
2:35 AM,26.6,23.0,86,30.35,10.0,SSW,4.6,-,N/A,,Clear,200,2012-10-12 07:35:00
2:55 AM,26.6,23.0,86,30.34,10.0,SSW,4.6,-,N/A,,Clear,200,2012-10-12 07:55:00
3:15 AM,28.4,23.0,80,30.33,10.0,South,5.8,-,N/A,,Clear,190,2012-10-12 08:15:00
3:35 AM,28.4,23.0,80,30.33,10.0,South,5.8,-,N/A,,Clear,190,2012-10-12 08:35:00
3:55 AM,26.6,23.0,86,30.32,10.0,South,6.9,-,N/A,,Clear,180,2012-10-12 08:55:00
4:15 AM,26.6,23.0,86,30.31,10.0,South,5.8,-,N/A,,Clear,190,2012-10-12 09:15:00
4:35 AM,28.4,23.0,80,30.31,10.0,SSW,6.9,-,N/A,,Clear,200,2012-10-12 09:35:00
4:55 AM,28.4,23.0,80,30.31,10.0,SSW,6.9,-,N/A,,Clear,200,2012-10-12 09:55:00
5:15 AM,28.4,23.0,80,30.32,10.0,SSW,8.1,-,N/A,,Clear,200,2012-10-12 10:15:00
5:55 AM,28.4,24.8,86,30.30,10.0,SSW,6.9,-,N/A,,Clear,200,2012-10-12 10:55:00
6:15 AM,28.4,24.8,86,30.29,10.0,South,9.2,-,N/A,,Clear,190,2012-10-12 11:15:00
6:35 AM,28.4,24.8,86,30.29,10.0,South,6.9,-,N/A,,Scattered Clouds,190,2012-10-12 11:35:00
6:55 AM,28.4,24.8,86,30.28,10.0,South,9.2,-,N/A,,Partly Cloudy,190,2012-10-12 11:55:00
7:15 AM,28.4,24.8,86,30.27,10.0,South,10.4,-,N/A,,Mostly Cloudy,190,2012-10-12 12:15:00
7:35 AM,28.4,24.8,86,30.27,10.0,South,8.1,-,N/A,,Mostly Cloudy,180,2012-10-12 12:35:00
7:55 AM,28.4,24.8,86,30.26,10.0,South,10.4,-,N/A,,Clear,170,2012-10-12 12:55:00
8:15 AM,28.4,24.8,86,30.25,10.0,South,10.4,-,N/A,,Scattered Clouds,170,2012-10-12 13:15:00
8:35 AM,30.2,24.8,80,30.23,10.0,South,12.7,16.1,N/A,,Overcast,180,2012-10-12 13:35:00
9:15 AM,32.0,24.8,75,30.22,10.0,South,11.5,-,N/A,,Overcast,180,2012-10-12 14:15:00
9:35 AM,32.0,24.8,75,30.21,10.0,South,9.2,-,N/A,,Overcast,180,2012-10-12 14:35:00
9:55 AM,32.0,24.8,75,30.20,10.0,South,12.7,16.1,N/A,,Overcast,180,2012-10-12 14:55:00
10:15 AM,32.0,26.6,80,30.19,10.0,South,11.5,16.1,N/A,,Overcast,180,2012-10-12 15:15:00
10:35 AM,32.0,26.6,80,30.17,10.0,South,11.5,-,N/A,,Overcast,190,2012-10-12 15:35:00
11:15 AM,35.6,26.6,70,30.14,10.0,South,16.1,20.7,N/A,,Overcast,180,2012-10-12 16:15:00
11:35 AM,35.6,26.6,70,30.13,10.0,South,16.1,23.0,N/A,,Overcast,190,2012-10-12 16:35:00
11:55 AM,35.6,26.6,70,30.12,10.0,South,18.4,25.3,N/A,,Overcast,190,2012-10-12 16:55:00
12:15 PM,37.4,26.6,65,30.12,10.0,South,16.1,25.3,N/A,,Overcast,180,2012-10-12 17:15:00
12:35 PM,37.4,26.6,65,30.11,10.0,South,17.3,25.3,N/A,,Overcast,180,2012-10-12 17:35:00
12:55 PM,39.2,26.6,61,30.09,10.0,South,17.3,26.5,N/A,,Overcast,180,2012-10-12 17:55:00
1:55 PM,44.6,28.4,53,30.04,10.0,South,17.3,27.6,N/A,,Clear,170,2012-10-12 18:55:00
2:15 PM,46.4,28.4,50,30.02,10.0,South,18.4,26.5,N/A,,Clear,170,2012-10-12 19:15:00
2:35 PM,50.0,26.6,40,29.99,10.0,South,25.3,34.5,N/A,,Partly Cloudy,180,2012-10-12 19:35:00
2:55 PM,50.0,26.6,40,29.97,10.0,South,21.9,38.0,N/A,,Clear,170,2012-10-12 19:55:00
3:15 PM,48.2,26.6,43,29.95,10.0,South,25.3,35.7,N/A,,Clear,170,2012-10-12 20:15:00
3:35 PM,50.0,26.6,40,29.94,10.0,South,26.5,35.7,N/A,,Clear,180,2012-10-12 20:35:00
3:55 PM,50.0,26.6,40,29.92,10.0,South,25.3,33.4,N/A,,Clear,170,2012-10-12 20:55:00
4:15 PM,50.0,24.8,37,29.91,10.0,South,21.9,32.2,N/A,,Clear,170,2012-10-12 21:15:00
4:35 PM,50.0,24.8,37,29.90,10.0,South,25.3,34.5,N/A,,Clear,170,2012-10-12 21:35:00
4:55 PM,50.0,24.8,37,29.90,10.0,South,19.6,29.9,N/A,,Clear,180,2012-10-12 21:55:00
5:15 PM,50.0,24.8,37,29.90,10.0,South,20.7,26.5,N/A,,Clear,180,2012-10-12 22:15:00
5:55 PM,50.0,23.0,35,29.89,10.0,South,12.7,24.2,N/A,,Clear,180,2012-10-12 22:55:00
6:15 PM,48.2,24.8,40,29.88,10.0,South,16.1,20.7,N/A,,Clear,170,2012-10-12 23:15:00
6:35 PM,48.2,23.0,37,29.87,10.0,South,13.8,19.6,N/A,,Clear,170,2012-10-12 23:35:00
6:55 PM,46.4,24.8,43,29.86,10.0,SSE,11.5,-,N/A,,Clear,160,2012-10-12 23:55:00
7:15 PM,46.4,24.8,43,29.86,10.0,SSE,10.4,18.4,N/A,,Clear,160,2012-10-13 00:15:00
7:35 PM,44.6,24.8,46,29.86,10.0,SSE,9.2,-,N/A,,Clear,160,2012-10-13 00:35:00
7:55 PM,44.6,24.8,46,29.85,10.0,SSE,10.4,16.1,N/A,,Clear,160,2012-10-13 00:55:00
8:15 PM,44.6,24.8,46,29.84,10.0,SSE,11.5,-,N/A,,Clear,160,2012-10-13 01:15:00
8:35 PM,42.8,24.8,49,29.82,10.0,SSE,9.2,-,N/A,,Clear,150,2012-10-13 01:35:00
9:15 PM,41.0,24.8,53,29.80,10.0,SSE,9.2,-,N/A,,Clear,150,2012-10-13 02:15:00
9:35 PM,41.0,24.8,53,29.80,10.0,SSE,6.9,-,N/A,,Clear,160,2012-10-13 02:35:00
9:55 PM,41.0,24.8,53,29.79,10.0,SSE,9.2,-,N/A,,Clear,160,2012-10-13 02:55:00
10:15 PM,41.0,24.8,53,29.78,10.0,SSE,10.4,16.1,N/A,,Clear,160,2012-10-13 03:15:00
10:55 PM,41.0,23.0,49,29.78,10.0,SSE,10.4,16.1,N/A,,Clear,160,2012-10-13 03:55:00
11:35 PM,39.2,23.0,52,29.77,10.0,SSE,11.5,-,N/A,,Clear,150,2012-10-13 04:35:00
11:55 PM,39.2,24.8,56,29.77,10.0,SSE,6.9,-,N/A,,Clear,150,2012-10-13 04:55:00